createdAt,value
2023-05-24T00:00:12.870Z,6.10
2023-05-24T00:03:00.945Z,5.30
2023-05-24T00:05:31.447Z,6.30
2023-05-24T00:07:59.913Z,5.50
2023-05-24T00:10:27.576Z,6.70
2023-05-24T00:12:55.405Z,5.50
2023-05-24T00:15:23.417Z,4.90
2023-05-24T00:17:51.523Z,5.40
2023-05-24T00:20:20.743Z,4.40
2023-05-24T00:25:16.323Z,4.70
2023-05-24T00:27:44.713Z,4.50
2023-05-24T00:30:12.754Z,5.30
2023-05-24T00:32:40.701Z,4.90
2023-05-24T00:35:09.855Z,5.20
2023-05-24T00:37:37.516Z,5.30
2023-05-24T00:40:06.517Z,4.90
2023-05-24T00:42:34.227Z,5.10
2023-05-24T00:45:02.013Z,5.00
2023-05-24T00:47:30.191Z,5.50
2023-05-24T00:49:58.005Z,5.30
2023-05-24T00:52:26.229Z,5.70
2023-05-24T00:54:54.018Z,5.30
2023-05-24T00:57:23.883Z,5.60
2023-05-24T00:59:52.670Z,5.50
2023-05-24T01:02:21.976Z,5.40
2023-05-24T01:04:49.833Z,5.70
2023-05-24T01:07:23.757Z,5.00
2023-05-24T01:10:30.891Z,5.10
2023-05-24T01:13:05.874Z,5.20
2023-05-24T01:16:15.437Z,4.80
2023-05-24T01:18:49.752Z,4.90
2023-05-24T01:22:01.874Z,5.30
2023-05-24T01:24:32.667Z,4.80
2023-05-24T01:27:08.404Z,5.30
2023-05-24T01:29:36.417Z,5.10
2023-05-24T01:32:04.988Z,5.20
2023-05-24T01:34:32.827Z,5.20
2023-05-24T01:37:00.652Z,5.20
2023-05-24T01:39:30.130Z,5.50
2023-05-24T01:42:16.363Z,5.10
2023-05-24T01:45:00.468Z,5.80
2023-05-24T01:47:28.203Z,5.60
2023-05-24T01:50:00.794Z,4.80
2023-05-24T01:52:33.867Z,5.00
2023-05-24T01:55:05.026Z,5.70
2023-05-24T01:57:34.432Z,5.30
2023-05-24T02:00:03.804Z,4.70
2023-05-24T02:02:40.977Z,5.00
2023-05-24T02:05:10.384Z,5.00
2023-05-24T02:07:38.266Z,5.20
2023-05-24T02:10:06.773Z,5.20
2023-05-24T02:12:34.458Z,6.00
2023-05-24T02:15:02.128Z,4.90
2023-05-24T02:17:33.129Z,5.30
2023-05-24T02:20:01.258Z,5.80
2023-05-24T02:22:29.472Z,5.00
2023-05-24T02:24:57.910Z,4.60
2023-05-24T02:27:25.769Z,4.90
2023-05-24T02:29:53.477Z,5.10
2023-05-24T02:32:21.199Z,4.90
2023-05-24T02:34:48.879Z,5.20
2023-05-24T02:37:16.636Z,5.10
2023-05-24T02:39:44.390Z,4.60
2023-05-24T02:42:12.067Z,5.30
2023-05-24T02:44:39.763Z,5.50
2023-05-24T02:47:07.695Z,5.50
2023-05-24T02:49:35.429Z,4.90
2023-05-24T02:52:03.292Z,5.20
2023-05-24T02:54:31.066Z,5.60
2023-05-24T02:56:58.990Z,5.80
2023-05-24T02:59:26.887Z,5.50
2023-05-24T03:01:54.711Z,4.80
2023-05-24T03:04:24.611Z,5.70
2023-05-24T03:06:53.601Z,5.50
2023-05-24T03:09:21.297Z,4.80
2023-05-24T03:11:51.878Z,5.20
2023-05-24T03:14:22.616Z,5.40
2023-05-24T03:16:51.169Z,5.20
2023-05-24T03:19:19.157Z,5.30
2023-05-24T03:21:48.570Z,4.90
2023-05-24T03:24:16.912Z,4.50
2023-05-24T03:26:45.290Z,5.60
2023-05-24T03:29:13.092Z,4.80
2023-05-24T03:34:10.692Z,4.60
2023-05-24T03:36:39.544Z,5.00
2023-05-24T03:39:07.886Z,5.70
2023-05-24T03:41:44.207Z,4.90
2023-05-24T03:44:13.122Z,5.10
2023-05-24T03:46:41.230Z,5.10
2023-05-24T03:49:09.269Z,4.90
2023-05-24T03:51:38.553Z,5.30
2023-05-24T03:54:06.307Z,4.70
2023-05-24T03:56:34.027Z,6.00
2023-05-24T03:59:03.993Z,5.80
2023-05-24T04:01:34.506Z,5.60
2023-05-24T04:04:04.227Z,5.80
2023-05-24T04:06:32.141Z,5.10
2023-05-24T04:09:01.142Z,5.60
2023-05-24T04:11:29.120Z,6.50
2023-05-24T04:14:00.699Z,5.30
2023-05-24T04:16:29.052Z,5.30
2023-05-24T04:18:58.292Z,5.20
2023-05-24T04:21:26.440Z,5.50
2023-05-24T04:23:56.644Z,5.30
2023-05-24T04:26:24.411Z,5.10
2023-05-24T04:28:52.490Z,4.90
2023-05-24T04:31:21.468Z,4.90
2023-05-24T04:33:50.225Z,4.70
2023-05-24T04:36:18.212Z,5.20
2023-05-24T04:38:47.104Z,5.30
2023-05-24T04:41:14.996Z,4.80
2023-05-24T04:43:43.669Z,4.50
2023-05-24T04:46:13.054Z,5.40
2023-05-24T04:48:40.803Z,5.40
2023-05-24T04:51:08.504Z,5.20
2023-05-24T04:53:36.398Z,4.30
2023-05-24T04:56:04.127Z,4.90
2023-05-24T04:58:31.954Z,4.80
2023-05-24T05:00:59.621Z,3.90
2023-05-24T05:03:27.406Z,4.70
2023-05-24T05:05:55.154Z,5.20
2023-05-24T05:08:22.983Z,4.80
2023-05-24T05:10:50.774Z,4.30
2023-05-24T05:13:18.456Z,5.30
2023-05-24T05:15:46.339Z,4.40
2023-05-24T05:18:14.184Z,4.30
2023-05-24T05:20:42.088Z,4.90
2023-05-24T05:23:10.126Z,5.30
2023-05-24T05:25:37.918Z,4.70
2023-05-24T05:28:05.611Z,5.20
2023-05-24T05:30:33.270Z,5.30
2023-05-24T05:33:01.993Z,5.90
2023-05-24T05:35:29.800Z,4.40
2023-05-24T05:37:57.918Z,5.00
2023-05-24T05:40:25.737Z,4.20
2023-05-24T05:42:53.527Z,4.50
2023-05-24T05:45:21.486Z,4.00
2023-05-24T05:47:49.200Z,4.80
2023-05-24T05:50:16.983Z,4.20
2023-05-24T05:52:45.832Z,4.40
2023-05-24T05:55:13.622Z,4.70
2023-05-24T05:57:41.415Z,4.20
2023-05-24T06:00:09.784Z,4.40
2023-05-24T06:02:40.247Z,5.00
2023-05-24T06:05:08.710Z,5.20
2023-05-24T06:07:37.513Z,4.20
2023-05-24T06:10:06.298Z,4.90
2023-05-24T06:12:34.338Z,4.20
2023-05-24T06:15:02.048Z,4.80
2023-05-24T06:17:30.145Z,4.30
2023-05-24T06:19:58.100Z,4.50
2023-05-24T06:22:28.059Z,5.70
2023-05-24T06:24:55.770Z,4.30
2023-05-24T06:27:23.755Z,4.30
2023-05-24T06:29:51.583Z,4.70
2023-05-24T06:32:19.306Z,5.00
2023-05-24T06:34:47.103Z,4.10
2023-05-24T06:37:15.271Z,4.30
2023-05-24T06:39:43.014Z,5.20
2023-05-24T06:42:10.764Z,4.30
2023-05-24T06:44:38.572Z,4.40
2023-05-24T06:47:06.826Z,4.30
2023-05-24T06:49:35.244Z,4.60
2023-05-24T06:52:03.074Z,4.20
2023-05-24T06:54:30.922Z,4.50
2023-05-24T06:56:59.086Z,4.30
2023-05-24T06:59:27.291Z,4.40
2023-05-24T07:01:59.005Z,4.60
2023-05-24T07:04:28.893Z,3.90
2023-05-24T07:06:57.433Z,4.30
2023-05-24T07:09:25.530Z,4.60
2023-05-24T07:11:53.765Z,3.90
2023-05-24T07:14:26.225Z,4.10
2023-05-24T07:16:57.618Z,4.80
2023-05-24T07:19:29.395Z,5.30
2023-05-24T07:21:57.529Z,5.40
2023-05-24T07:24:25.518Z,4.90
2023-05-24T07:26:53.772Z,4.60
2023-05-24T07:29:21.951Z,4.30
2023-05-24T07:31:49.743Z,4.50
2023-05-24T07:34:21.275Z,4.70
2023-05-24T07:36:49.532Z,4.50
2023-05-24T07:39:17.365Z,5.20
2023-05-24T07:41:45.534Z,4.70
2023-05-24T07:44:13.373Z,4.60
2023-05-24T07:46:41.214Z,5.20
2023-05-24T07:49:09.212Z,4.80
2023-05-24T07:51:37.097Z,5.60
2023-05-24T07:54:05.659Z,4.40
2023-05-24T07:56:34.413Z,5.00
2023-05-24T07:59:05.453Z,4.90
2023-05-24T08:01:35.314Z,4.40
2023-05-24T08:04:04.346Z,5.10
2023-05-24T08:09:04.461Z,4.70
2023-05-24T08:11:32.295Z,5.10
2023-05-24T08:14:01.076Z,5.30
2023-05-24T08:16:28.872Z,5.40
2023-05-24T08:18:56.890Z,4.40
2023-05-24T08:21:24.578Z,5.00
2023-05-24T08:23:52.321Z,4.80
2023-05-24T08:26:21.093Z,5.50
2023-05-24T08:28:48.962Z,4.30
2023-05-24T08:31:17.109Z,5.00
2023-05-24T08:33:45.772Z,5.10
2023-05-24T08:36:13.525Z,4.50
2023-05-24T08:38:41.211Z,4.60
2023-05-24T08:41:11.797Z,5.10
2023-05-24T08:43:40.437Z,5.00
2023-05-24T08:46:08.685Z,4.40
2023-05-24T08:48:45.175Z,4.80
2023-05-24T08:51:16.786Z,4.60
2023-05-24T08:53:49.096Z,4.50
2023-05-24T08:56:18.264Z,4.50
2023-05-24T08:58:47.388Z,5.20
2023-05-24T09:01:17.254Z,4.60
2023-05-24T09:03:48.490Z,4.60
2023-05-24T09:06:18.407Z,4.70
2023-05-24T09:08:46.321Z,4.10
2023-05-24T09:11:16.115Z,5.20
2023-05-24T09:13:46.132Z,4.60
2023-05-24T09:16:15.247Z,4.10
2023-05-24T09:18:43.176Z,4.50
2023-05-24T09:21:12.103Z,5.00
2023-05-24T09:26:11.306Z,4.20
2023-05-24T09:28:41.742Z,5.20
2023-05-24T09:31:09.759Z,5.20
2023-05-24T09:33:39.678Z,5.10
2023-05-24T09:36:07.995Z,5.10
2023-05-24T09:38:36.463Z,5.60
2023-05-24T09:43:48.619Z,9.80
2023-05-24T09:46:20.456Z,14.20
2023-05-24T09:48:59.169Z,40.10
2023-05-24T09:51:27.463Z,8.80
2023-05-24T09:54:01.347Z,6.20
2023-05-24T09:56:30.827Z,21.60
2023-05-24T09:58:59.013Z,7.00
2023-05-24T10:01:28.285Z,7.00
2023-05-24T10:03:59.913Z,17.00
2023-05-24T10:06:29.420Z,5.60
2023-05-24T10:08:57.884Z,7.20
2023-05-24T10:11:26.915Z,6.80
2023-05-24T10:13:55.609Z,5.70
2023-05-24T10:16:23.386Z,12.30
2023-05-24T10:18:51.367Z,6.20
2023-05-24T10:21:22.084Z,5.70
2023-05-24T10:23:52.912Z,4.80
2023-05-24T10:26:26.498Z,5.80
2023-05-24T10:29:01.957Z,5.60
2023-05-24T10:34:08.348Z,5.80
2023-05-24T10:36:40.270Z,5.10
2023-05-24T10:39:11.257Z,5.20
2023-05-24T10:41:41.657Z,4.20
2023-05-24T10:44:13.801Z,5.20
2023-05-24T10:47:17.127Z,4.20
2023-05-24T10:49:53.072Z,4.30
2023-05-24T10:52:21.038Z,4.80
2023-05-24T10:55:05.131Z,4.90
2023-05-24T10:57:34.143Z,4.30
2023-05-24T11:00:30.779Z,5.30
2023-05-24T11:03:10.305Z,4.60
2023-05-24T11:05:58.519Z,4.70
2023-05-24T11:08:35.602Z,5.20
2023-05-24T11:13:47.456Z,4.60
2023-05-24T11:16:37.105Z,4.10
2023-05-24T11:19:13.149Z,4.80
2023-05-24T11:21:41.361Z,4.30
2023-05-24T11:24:09.727Z,4.80
2023-05-24T11:26:37.694Z,4.60
2023-05-24T11:29:06.236Z,4.00
2023-05-24T11:31:36.734Z,4.30
2023-05-24T11:34:10.614Z,4.50
2023-05-24T11:36:39.722Z,4.60
2023-05-24T11:39:09.558Z,5.10
2023-05-24T11:41:40.676Z,5.10
2023-05-24T11:44:10.353Z,4.60
2023-05-24T11:46:43.222Z,4.80
2023-05-24T11:49:16.108Z,4.70
2023-05-24T11:51:44.412Z,4.20
2023-05-24T11:54:12.188Z,5.10
2023-05-24T11:56:40.213Z,4.70
2023-05-24T11:59:32.264Z,4.40
2023-05-24T12:02:04.501Z,5.40
2023-05-24T12:04:33.994Z,5.00
2023-05-24T12:07:03.042Z,4.60
2023-05-24T12:09:31.045Z,4.90
2023-05-24T12:11:59.152Z,5.50
2023-05-24T12:14:32.901Z,4.60
2023-05-24T12:17:01.435Z,4.20
2023-05-24T12:19:37.266Z,6.40
2023-05-24T12:22:07.232Z,6.30
2023-05-24T12:24:35.871Z,6.00
2023-05-24T12:27:07.612Z,5.50
2023-05-24T12:29:38.819Z,5.60
2023-05-24T12:32:12.327Z,5.40
2023-05-24T12:34:42.327Z,5.50
2023-05-24T12:37:13.412Z,5.60
2023-05-24T12:39:43.985Z,6.00
2023-05-24T12:42:15.469Z,5.30
2023-05-24T12:44:45.084Z,6.20
2023-05-24T12:47:13.230Z,6.20
2023-05-24T12:49:41.236Z,7.30
2023-05-24T12:52:09.427Z,8.10
2023-05-24T12:54:37.143Z,9.60
2023-05-24T12:57:05.123Z,9.00
2023-05-24T12:59:33.823Z,10.00
2023-05-24T13:02:02.518Z,10.40
2023-05-24T13:04:33.709Z,7.40
2023-05-24T13:07:03.152Z,8.70
2023-05-24T13:09:31.354Z,9.50
2023-05-24T13:11:59.138Z,8.70
2023-05-24T13:14:27.489Z,9.50
2023-05-24T13:16:55.802Z,8.10
2023-05-24T13:19:23.786Z,9.30
2023-05-24T13:21:54.379Z,8.20
2023-05-24T13:24:23.364Z,8.10
2023-05-24T13:26:53.763Z,10.90
2023-05-24T13:29:36.836Z,9.80
2023-05-24T13:32:10.751Z,8.80
2023-05-24T13:34:38.521Z,6.50
2023-05-24T13:37:07.776Z,8.70
2023-05-24T13:39:36.032Z,8.90
2023-05-24T13:42:05.010Z,8.40
2023-05-24T13:44:33.032Z,7.90
2023-05-24T13:47:01.448Z,8.10
2023-05-24T13:49:30.052Z,7.70
2023-05-24T13:51:58.636Z,8.50
2023-05-24T13:54:26.658Z,8.10
2023-05-24T13:56:57.466Z,6.70
2023-05-24T13:59:25.705Z,6.60
2023-05-24T14:01:54.136Z,7.30
2023-05-24T14:04:21.972Z,7.40
2023-05-24T14:06:49.735Z,7.90
2023-05-24T14:09:17.499Z,6.80
2023-05-24T14:11:45.591Z,7.90
2023-05-24T14:16:44.258Z,8.50
2023-05-24T14:19:11.989Z,7.30
2023-05-24T14:21:41.313Z,7.30
2023-05-24T14:24:09.770Z,6.80
2023-05-24T14:26:37.656Z,7.60
2023-05-24T14:29:05.519Z,7.70
2023-05-24T14:31:35.682Z,7.50
2023-05-24T14:34:03.337Z,7.80
2023-05-24T14:36:31.667Z,7.50
2023-05-24T14:38:59.410Z,7.00
2023-05-24T14:41:27.431Z,7.30
2023-05-24T14:43:55.266Z,8.20
2023-05-24T14:46:23.183Z,8.40
2023-05-24T14:48:51.101Z,9.20
2023-05-24T14:51:19.193Z,9.00
2023-05-24T14:53:48.300Z,8.00
2023-05-24T14:56:16.455Z,8.10
2023-05-24T14:58:44.192Z,7.70
2023-05-24T15:01:12.064Z,7.20
2023-05-24T15:03:40.542Z,8.50
2023-05-24T15:06:08.383Z,8.00
2023-05-24T15:08:36.105Z,8.30
2023-05-24T15:11:05.110Z,7.30
2023-05-24T15:13:33.836Z,7.90
2023-05-24T15:16:01.848Z,7.90
2023-05-24T15:18:32.074Z,7.40
2023-05-24T15:21:00.228Z,7.70
2023-05-24T15:23:28.606Z,7.20
2023-05-24T15:25:56.567Z,6.70
2023-05-24T15:28:26.171Z,7.50
2023-05-24T15:30:54.729Z,7.60
2023-05-24T15:33:22.895Z,7.40
2023-05-24T15:35:50.947Z,8.70
2023-05-24T15:38:18.741Z,7.90
2023-05-24T15:40:47.144Z,8.80
2023-05-24T15:43:17.915Z,7.90
2023-05-24T15:45:47.234Z,7.60
2023-05-24T15:48:15.106Z,7.20
2023-05-24T15:53:13.840Z,7.50
2023-05-24T15:55:41.621Z,7.20
2023-05-24T15:58:09.620Z,7.80
2023-05-24T16:00:37.318Z,7.00
2023-05-24T16:03:05.206Z,6.30
2023-05-24T16:05:33.278Z,5.90
2023-05-24T16:08:02.506Z,5.40
2023-05-24T16:10:30.821Z,5.60
2023-05-24T16:12:58.852Z,7.00
2023-05-24T16:15:26.928Z,5.70
2023-05-24T16:17:54.753Z,6.20
2023-05-24T16:20:22.679Z,5.10
2023-05-24T16:22:51.092Z,5.70
2023-05-24T16:25:18.880Z,6.10
2023-05-24T16:27:46.660Z,6.10
2023-05-24T16:30:15.040Z,6.20
2023-05-24T16:32:45.150Z,6.40
2023-05-24T16:35:13.298Z,6.00
2023-05-24T16:37:41.089Z,7.10
2023-05-24T16:40:09.469Z,6.80
2023-05-24T16:42:37.681Z,7.30
2023-05-24T16:45:06.488Z,6.50
2023-05-24T16:47:34.512Z,7.50
2023-05-24T16:50:02.504Z,6.50
2023-05-24T16:52:30.384Z,8.10
2023-05-24T16:54:58.461Z,7.80
2023-05-24T16:57:26.502Z,7.00
2023-05-24T16:59:54.210Z,8.50
2023-05-24T17:02:22.249Z,7.00
2023-05-24T17:04:50.398Z,7.50
2023-05-24T17:07:18.838Z,7.10
2023-05-24T17:09:47.654Z,7.80
2023-05-24T17:12:16.639Z,8.00
2023-05-24T17:14:45.236Z,7.30
2023-05-24T17:17:13.412Z,6.90
2023-05-24T17:19:41.707Z,6.80
2023-05-24T17:22:11.266Z,7.40
2023-05-24T17:24:39.654Z,8.00
2023-05-24T17:27:07.941Z,6.90
2023-05-24T17:29:36.184Z,7.90
2023-05-24T17:32:06.254Z,8.30
2023-05-24T17:37:04.505Z,7.40
2023-05-24T17:39:32.640Z,7.00
2023-05-24T17:42:01.082Z,8.10
2023-05-24T17:44:28.961Z,7.80
2023-05-24T17:46:59.192Z,7.80
2023-05-24T17:49:29.450Z,6.80
2023-05-24T17:52:00.378Z,7.40
2023-05-24T17:54:29.674Z,7.50
2023-05-24T17:56:58.070Z,7.00
2023-05-24T17:59:26.255Z,7.80
2023-05-24T18:01:54.501Z,7.10
2023-05-24T18:04:23.180Z,7.10
2023-05-24T18:06:52.105Z,7.40
2023-05-24T18:09:21.495Z,7.30
2023-05-24T18:11:49.788Z,7.70
2023-05-24T18:14:18.602Z,7.90
2023-05-24T18:16:46.455Z,7.60
2023-05-24T18:19:14.516Z,7.10
2023-05-24T18:21:42.550Z,6.80
2023-05-24T18:24:10.442Z,7.00
2023-05-24T18:26:38.231Z,6.90
2023-05-24T18:29:07.120Z,9.70
2023-05-24T18:31:36.496Z,8.20
2023-05-24T18:34:04.560Z,7.70
2023-05-24T18:36:33.128Z,8.10
2023-05-24T18:39:01.005Z,8.60
2023-05-24T18:41:29.268Z,5.80
2023-05-24T18:43:58.034Z,7.80
2023-05-24T18:46:26.087Z,7.50
2023-05-24T18:48:54.279Z,7.30
2023-05-24T18:51:22.063Z,8.60
2023-05-24T18:53:51.773Z,7.80
2023-05-24T18:56:19.933Z,8.00
2023-05-24T18:58:49.945Z,8.70
2023-05-24T19:01:18.906Z,9.00
2023-05-24T19:03:46.776Z,9.00
2023-05-24T19:06:16.076Z,8.80
2023-05-24T19:08:44.249Z,7.40
2023-05-24T19:11:12.324Z,7.60
2023-05-24T19:13:41.570Z,8.20
2023-05-24T19:18:46.490Z,8.20
2023-05-24T19:21:15.051Z,8.40
2023-05-24T19:23:43.284Z,7.70
2023-05-24T19:26:11.809Z,7.70
2023-05-24T19:28:41.631Z,8.20
2023-05-24T19:31:09.311Z,8.00
2023-05-24T19:33:45.397Z,8.60
2023-05-24T19:36:20.167Z,8.00
2023-05-24T19:38:48.458Z,8.50
2023-05-24T19:41:16.543Z,8.90
2023-05-24T19:43:44.526Z,8.60
2023-05-24T19:46:14.672Z,8.20
2023-05-24T19:48:42.812Z,8.50
2023-05-24T19:51:13.400Z,9.60
2023-05-24T19:53:43.020Z,8.40
2023-05-24T19:56:11.399Z,8.40
2023-05-24T19:58:40.606Z,7.90
2023-05-24T20:01:09.567Z,8.80
2023-05-24T20:03:38.183Z,9.50
2023-05-24T20:06:06.363Z,9.00
2023-05-24T20:08:36.077Z,8.80
2023-05-24T20:11:03.901Z,8.10
2023-05-24T20:13:31.678Z,6.70
2023-05-24T20:15:59.969Z,8.50
2023-05-24T20:18:28.013Z,9.30
2023-05-24T20:20:57.443Z,8.80
2023-05-24T20:23:27.495Z,9.50
2023-05-24T20:25:55.960Z,8.90
2023-05-24T20:28:30.633Z,10.20
2023-05-24T20:30:59.790Z,8.70
2023-05-24T20:33:28.067Z,8.90
2023-05-24T20:35:56.377Z,8.60
2023-05-24T20:38:24.939Z,9.40
2023-05-24T20:40:53.858Z,7.30
2023-05-24T20:43:21.641Z,8.00
2023-05-24T20:45:49.613Z,8.20
2023-05-24T20:48:18.959Z,9.30
2023-05-24T20:50:46.876Z,8.80
2023-05-24T20:53:14.657Z,9.40
2023-05-24T20:55:42.519Z,8.50
2023-05-24T20:58:10.678Z,9.20
2023-05-24T21:00:39.951Z,10.00
2023-05-24T21:03:08.631Z,6.90
2023-05-24T21:05:38.014Z,9.50
2023-05-24T21:13:01.239Z,8.50
2023-05-24T21:15:28.876Z,8.50
2023-05-24T21:17:56.624Z,7.30
2023-05-24T21:20:24.437Z,9.40
2023-05-24T21:22:52.081Z,9.90
2023-05-24T21:25:19.776Z,8.50
2023-05-24T21:27:47.815Z,8.20
2023-05-24T21:30:15.876Z,9.80
2023-05-24T21:32:43.705Z,9.30
2023-05-24T21:35:11.809Z,8.90
2023-05-24T21:37:39.534Z,9.30
2023-05-24T21:40:07.638Z,9.70
2023-05-24T21:42:36.214Z,9.10
2023-05-24T21:45:04.703Z,9.20
2023-05-24T21:47:32.942Z,10.00
2023-05-24T21:50:01.007Z,9.50
2023-05-24T21:52:28.818Z,9.00
2023-05-24T21:54:56.609Z,8.80
2023-05-24T21:57:26.450Z,8.30
2023-05-24T21:59:54.634Z,9.50
2023-05-24T22:02:22.538Z,8.10
2023-05-24T22:04:50.377Z,9.00
2023-05-24T22:07:18.053Z,9.70
2023-05-24T22:09:45.794Z,8.80
2023-05-24T22:12:13.625Z,10.30
2023-05-24T22:14:41.937Z,9.20
2023-05-24T22:17:09.661Z,9.10
2023-05-24T22:19:40.002Z,8.80
2023-05-24T22:22:09.883Z,9.80
2023-05-24T22:24:37.780Z,9.80
2023-05-24T22:27:05.571Z,8.50
2023-05-24T22:29:33.224Z,10.60
2023-05-24T22:32:01.090Z,9.40
2023-05-24T22:34:29.369Z,9.90
2023-05-24T22:36:57.792Z,10.20
2023-05-24T22:39:25.812Z,10.20
2023-05-24T22:41:53.653Z,9.70
2023-05-24T22:44:21.470Z,9.00
2023-05-24T22:46:49.940Z,10.40
2023-05-24T22:49:19.520Z,11.00
2023-05-24T22:51:50.650Z,9.90
2023-05-24T22:54:18.406Z,8.80
2023-05-24T22:56:46.314Z,10.40
2023-05-24T22:59:14.089Z,5.70
2023-05-24T23:01:41.849Z,10.70
2023-05-24T23:04:20.332Z,10.10
2023-05-24T23:06:52.336Z,11.20
2023-05-24T23:09:35.087Z,10.50
2023-05-24T23:12:07.768Z,9.80
2023-05-24T23:14:42.063Z,10.20
2023-05-24T23:17:10.363Z,11.00
2023-05-24T23:19:42.682Z,10.60
2023-05-24T23:22:23.650Z,10.70
2023-05-24T23:24:52.133Z,10.20
2023-05-24T23:27:19.928Z,7.80
2023-05-24T23:29:47.610Z,9.40
2023-05-24T23:32:15.423Z,10.30
2023-05-24T23:34:43.167Z,10.40
2023-05-24T23:37:11.057Z,10.00
2023-05-24T23:39:38.851Z,9.70
2023-05-24T23:42:06.827Z,9.60
2023-05-24T23:44:34.625Z,10.30
2023-05-24T23:47:02.723Z,9.70
2023-05-24T23:49:31.110Z,10.30
2023-05-24T23:51:58.841Z,9.60
2023-05-24T23:54:26.680Z,10.90
2023-05-24T23:56:54.644Z,8.90
2023-05-24T23:59:22.577Z,10.20
